Terminal Aerodrome Forecast
Issued by NWS Charleston, WV

Current Version | Previous Version | Graphics & Text | Print | Product List | Glossary On
Versions: 1 2 3 4 5 6 7 8 9 10 11 12 13 14 15 16 17 18 19 20 21 22 23 24 25 26 27 28 29 30 31 32 33 34 35 36
000
FTUS41 KRLX 210200 AAA
TAFBKW
TAF AMD
KBKW 210229Z 2102/2124 23004KT P6SM BKN050
      TEMPO 2102/2106 BKN025
     FM211000 VRB03KT P6SM OVC025
     FM211200 28004KT P6SM OVC015
     FM211700 28008G13KT P6SM OVC025
     FM212000 30009G15KT P6SM OVC035=

USA.gov is the U.S. government's official web portal to all federal, state and local government web resources and services.